首页
METAR-TAF:

METAR-TAF

机场 :

恩贾梅纳国际机场

恩賈梅納, 乍得

纬度: 12-08N, 经度: 015-02E, 海拔: 295米

当前天气观测

该预报发布于19分钟前的11:00 UTC
风速7节,风向东北,在东北东转东南之间变化
温度 37°C
湿度 12%
气压 1007 hPa
能見度: 6000

METAR: FTTJ 121100Z 05007KT 050V120 6000 NSC 37/03 Q1007 NOSIG

时间: 12:19 (11:19 UTC)

预报

该预报发布于6小时和19分钟前的05:00 UTC
预报有效从12日的 06点(UTC)到 13日的 12点(UTC)
风速4节,风向多变
能見度: 7000
几率 30% :
短暂存在
从 12日的 08点(UTC)到 12日的 14点(UTC)
风速16节,风向
能見度: 4000
高吹尘
短暂存在
从 12日的 16点(UTC)到 12日的 19点(UTC)
能見度: 4000
浮尘

TAF: FTTJ 120500Z 1206/1312 VRB04KT 7000 NSC PROB30 TEMPO 1208/1214 08016KT 4000 BLDU TEMPO 1216/1219 4000 DU

超过4000个机场的气象观测和天气预报(METAR&TAF报告)。

可查询的气象台以黄色和红色小点在地图上表示。

将鼠标移到小点上方,可查看气象台名称。

然后点击查看天气观测和预报。

如需切换地图:点击带黑十字的绿色按钮放大地图;点击带横线的绿色按钮缩小地图;或者点击绿色箭头查看邻近地区的地图。


METAR-TAF: